Time;durP1;ratioP1;P1;durP2;ratioP2;P2;SDS_P1;SDS_P2;PMS_P1;PMS_P2;Temp;Humidity;BMP_temperature;BMP_pressure;BME280_temperature;BME280_humidity;BME280_pressure;Samples;Min_cycle;Max_cycle;Signal;HPM_P1;HPM_P2
2021/09/09 00:00:32;;;;;;;2.78;1.60;;;16.50;51.50;;;;;;5049817;28;20254;-60
2021/09/09 00:03:02;;;;;;;2.38;1.30;;;16.60;51.50;;;;;;5049732;28;20228;-60
2021/09/09 00:05:33;;;;;;;2.22;1.50;;;16.60;51.50;;;;;;5049407;28;20257;-60
2021/09/09 00:08:05;;;;;;;2.17;1.50;;;16.70;51.50;;;;;;5049232;28;20253;-60
2021/09/09 00:10:35;;;;;;;3.40;1.55;;;16.70;51.50;;;;;;5049820;28;20362;-61
2021/09/09 00:13:06;;;;;;;2.08;1.60;;;16.70;51.50;;;;;;5049800;28;20230;-60
2021/09/09 00:15:36;;;;;;;2.25;1.23;;;16.80;51.50;;;;;;5053735;28;20387;-60
2021/09/09 00:18:07;;;;;;;2.13;1.50;;;16.80;51.40;;;;;;5046267;28;20227;-61
2021/09/09 00:20:37;;;;;;;2.45;1.38;;;16.90;51.40;;;;;;5046751;28;20254;-61
2021/09/09 00:23:10;;;;;;;4.07;1.40;;;16.90;51.40;;;;;;5052437;28;20777;-58
2021/09/09 00:25:40;;;;;;;2.28;1.20;;;17.00;51.50;;;;;;5053395;28;20199;-61
2021/09/09 00:28:10;;;;;;;2.67;1.30;;;17.00;51.40;;;;;;5053258;28;20223;-53
2021/09/09 00:30:41;;;;;;;2.08;1.23;;;17.00;51.90;;;;;;5052245;28;20259;-59
2021/09/09 00:33:11;;;;;;;2.45;1.52;;;17.10;51.30;;;;;;5053332;28;20196;-61
2021/09/09 00:35:42;;;;;;;1.80;1.08;;;17.10;51.30;;;;;;5052500;28;20239;-60
2021/09/09 00:38:16;;;;;;;1.67;1.17;;;17.20;51.30;;;;;;5053643;28;20223;-60
2021/09/09 00:40:47;;;;;;;1.67;1.00;;;17.20;51.30;;;;;;5062213;22;20250;-52
2021/09/09 00:43:18;;;;;;;1.35;1.00;;;17.30;51.20;;;;;;5052890;28;20258;-57
2021/09/09 00:45:52;;;;;;;2.45;1.02;;;17.30;51.20;;;;;;5053536;28;20250;-51
2021/09/09 00:48:23;;;;;;;1.85;1.13;;;17.30;51.10;;;;;;5053249;28;20233;-54
2021/09/09 00:50:53;;;;;;;2.28;0.80;;;17.40;51.00;;;;;;5053529;28;20276;-55
2021/09/09 00:53:26;;;;;;;1.98;1.05;;;17.40;51.00;;;;;;5053762;28;20239;-51
2021/09/09 00:55:56;;;;;;;1.83;1.08;;;17.50;51.00;;;;;;5053578;28;20223;-51
2021/09/09 00:58:26;;;;;;;1.92;1.00;;;17.50;50.90;;;;;;5052046;28;20227;-52
2021/09/09 01:00:57;;;;;;;1.65;1.00;;;17.60;50.90;;;;;;5045051;28;20266;-47
2021/09/09 01:03:27;;;;;;;1.33;0.80;;;17.60;50.90;;;;;;5052944;28;20666;-50
2021/09/09 01:05:58;;;;;;;1.10;0.93;;;17.60;50.80;;;;;;5042169;28;20832;-50
2021/09/09 01:08:30;;;;;;;2.13;1.08;;;17.70;50.90;;;;;;5035582;28;20227;-51
2021/09/09 01:11:01;;;;;;;1.30;0.85;;;17.70;50.80;;;;;;5032761;28;20726;-44
2021/09/09 01:13:31;;;;;;;1.27;0.85;;;17.70;50.70;;;;;;5032005;28;20266;-49
2021/09/09 01:16:02;;;;;;;1.08;0.80;;;17.80;50.70;;;;;;5042059;28;20291;-53
2021/09/09 01:18:32;;;;;;;1.25;0.80;;;17.80;51.30;;;;;;5052018;28;20423;-51
2021/09/09 01:21:03;;;;;;;0.82;0.70;;;17.90;50.70;;;;;;5052263;28;20309;-48
2021/09/09 01:23:35;;;;;;;1.00;0.73;;;17.90;50.60;;;;;;5050234;28;20310;-53
2021/09/09 01:26:07;;;;;;;1.13;0.77;;;18.00;50.50;;;;;;5051326;28;20561;-50
2021/09/09 01:28:38;;;;;;;1.17;0.70;;;18.00;50.50;;;;;;5051364;28;20401;-56
2021/09/09 01:31:08;;;;;;;1.00;0.80;;;18.10;50.40;;;;;;5052671;28;20282;-51
2021/09/09 01:33:38;;;;;;;1.30;0.50;;;18.10;50.30;;;;;;5052107;28;20257;-54
2021/09/09 01:36:09;;;;;;;0.90;0.60;;;18.10;50.10;;;;;;5051149;28;20695;-56
2021/09/09 01:38:39;;;;;;;0.90;0.70;;;18.20;50.00;;;;;;5064609;22;20195;-54
2021/09/09 01:41:12;;;;;;;1.25;0.65;;;18.20;49.90;;;;;;5070853;28;20272;-61
2021/09/09 01:43:42;;;;;;;0.68;0.63;;;18.20;49.90;;;;;;5070688;28;20265;-62
2021/09/09 01:46:12;;;;;;;0.88;0.60;;;18.30;49.80;;;;;;5071528;28;20199;-58
2021/09/09 01:48:43;;;;;;;0.98;0.50;;;18.30;49.70;;;;;;5071863;28;20198;-60
2021/09/09 01:51:13;;;;;;;0.88;0.63;;;18.40;50.30;;;;;;5071382;28;20280;-62
2021/09/09 01:53:44;;;;;;;1.40;0.60;;;18.30;49.50;;;;;;5071852;28;20195;-61
2021/09/09 01:56:17;;;;;;;2.30;0.85;;;18.40;49.50;;;;;;5071040;28;20230;-58
2021/09/09 01:58:47;;;;;;;0.93;0.65;;;18.40;49.40;;;;;;5072210;28;20201;-61
2021/09/09 02:01:18;;;;;;;0.65;0.60;;;18.50;49.40;;;;;;5071084;28;20478;-62
2021/09/09 02:03:48;;;;;;;0.40;0.35;;;18.50;49.30;;;;;;5069812;28;20327;-60
2021/09/09 02:06:19;;;;;;;0.50;0.40;;;18.50;49.20;;;;;;5071091;28;20245;-60
2021/09/09 02:08:49;;;;;;;1.02;0.40;;;18.50;49.10;;;;;;5070375;28;20202;-56
2021/09/09 02:11:22;;;;;;;0.63;0.40;;;18.60;48.80;;;;;;5070755;28;20311;-62
2021/09/09 02:13:53;;;;;;;0.40;0.40;;;18.60;48.50;;;;;;5070690;28;20199;-64
2021/09/09 02:16:23;;;;;;;0.40;0.35;;;18.60;48.50;;;;;;5071187;28;20268;-63
2021/09/09 02:18:54;;;;;;;0.70;0.50;;;18.70;48.50;;;;;;5069812;28;20226;-58
2021/09/09 02:21:24;;;;;;;0.80;0.47;;;18.70;48.60;;;;;;5070807;28;20690;-64
2021/09/09 02:23:55;;;;;;;0.52;0.45;;;18.70;48.60;;;;;;5069964;28;20314;-63
2021/09/09 02:26:27;;;;;;;0.50;0.40;;;18.70;48.70;;;;;;5071237;28;20272;-50
2021/09/09 02:28:58;;;;;;;0.68;0.55;;;18.80;48.70;;;;;;5071025;28;20222;-44
2021/09/09 02:31:28;;;;;;;0.45;0.32;;;18.70;48.70;;;;;;5070521;28;20219;-61
2021/09/09 02:33:59;;;;;;;0.50;0.50;;;18.80;48.60;;;;;;5070743;28;20238;-61
2021/09/09 02:36:30;;;;;;;0.55;0.40;;;18.80;48.60;;;;;;5070783;28;20222;-65
2021/09/09 02:39:01;;;;;;;0.40;0.40;;;18.80;48.60;;;;;;5071558;28;20213;-62
2021/09/09 02:41:33;;;;;;;0.40;0.40;;;18.80;48.50;;;;;;5070069;28;20261;-61
2021/09/09 02:44:03;;;;;;;0.88;0.60;;;18.80;48.40;;;;;;5071003;28;20322;-63
2021/09/09 02:46:34;;;;;;;1.65;0.57;;;18.80;48.40;;;;;;5070899;28;20231;-61
2021/09/09 02:49:04;;;;;;;0.60;0.45;;;18.90;48.30;;;;;;5070668;28;20264;-56
2021/09/09 02:51:35;;;;;;;0.82;0.40;;;18.90;48.30;;;;;;5069969;28;20234;-64
2021/09/09 02:54:05;;;;;;;1.75;0.50;;;18.90;48.20;;;;;;5069292;28;20709;-48
2021/09/09 02:56:38;;;;;;;0.52;0.50;;;18.90;48.20;;;;;;5070437;28;20256;-64
2021/09/09 02:59:08;;;;;;;0.35;0.35;;;18.90;48.20;;;;;;5069847;28;20253;-62
2021/09/09 03:01:38;;;;;;;0.98;0.60;;;18.90;48.00;;;;;;5069980;28;20303;-64
2021/09/09 03:04:09;;;;;;;0.45;0.45;;;19.00;48.10;;;;;;5068709;28;20650;-50
2021/09/09 03:06:39;;;;;;;0.60;0.50;;;18.90;48.00;;;;;;5069270;28;20580;-58
2021/09/09 03:09:10;;;;;;;0.50;0.50;;;18.90;47.90;;;;;;5068906;28;20609;-65
2021/09/09 03:11:42;;;;;;;0.40;0.40;;;18.90;47.90;;;;;;5070321;28;20708;-62
2021/09/09 03:14:12;;;;;;;0.85;0.55;;;19.00;47.90;;;;;;5069750;28;20199;-57
2021/09/09 03:16:43;;;;;;;0.40;0.40;;;19.00;47.90;;;;;;5070179;28;20191;-65
2021/09/09 03:19:13;;;;;;;0.47;0.40;;;19.00;47.90;;;;;;5069977;28;20199;-57
2021/09/09 03:21:44;;;;;;;0.43;0.40;;;19.00;47.80;;;;;;5070073;28;20199;-55
2021/09/09 03:24:15;;;;;;;0.60;0.43;;;19.00;47.80;;;;;;5070216;28;20257;-53
2021/09/09 03:26:47;;;;;;;0.50;0.50;;;19.00;47.70;;;;;;5069321;28;20237;-59
2021/09/09 03:29:18;;;;;;;0.50;0.40;;;19.00;47.60;;;;;;5069067;28;20279;-57
2021/09/09 03:31:48;;;;;;;0.30;0.30;;;19.00;47.70;;;;;;5070048;28;20401;-60
2021/09/09 03:34:19;;;;;;;0.30;0.30;;;19.00;47.60;;;;;;5070604;28;20230;-64
2021/09/09 03:36:49;;;;;;;0.68;0.47;;;19.00;47.60;;;;;;5069738;28;20182;-63
2021/09/09 03:39:19;;;;;;;1.77;0.60;;;19.00;47.60;;;;;;5076898;22;20289;-45
2021/09/09 03:41:52;;;;;;;0.40;0.40;;;19.00;47.60;;;;;;5049085;28;20253;-54
2021/09/09 03:44:22;;;;;;;0.40;0.40;;;19.00;47.60;;;;;;5050469;28;20258;-52
2021/09/09 03:46:53;;;;;;;0.77;0.50;;;19.00;47.50;;;;;;5050701;28;20239;-54
2021/09/09 03:49:23;;;;;;;0.63;0.40;;;19.00;47.40;;;;;;5053649;28;20192;-54
2021/09/09 03:51:53;;;;;;;0.95;0.70;;;19.00;47.30;;;;;;5052856;28;20278;-55
2021/09/09 03:54:24;;;;;;;0.98;0.55;;;19.00;47.20;;;;;;5053272;28;20668;-49
2021/09/09 03:56:56;;;;;;;0.70;0.40;;;19.00;46.90;;;;;;5054054;28;20234;-55
2021/09/09 03:59:26;;;;;;;0.85;0.63;;;19.00;46.00;;;;;;5052845;28;20234;-55
2021/09/09 04:01:59;;;;;;;0.98;0.45;;;19.00;45.80;;;;;;5054412;28;20238;-54
2021/09/09 04:04:29;;;;;;;1.90;0.60;;;19.00;45.90;;;;;;5053743;28;20310;-55
2021/09/09 04:07:00;;;;;;;0.45;0.30;;;19.00;45.80;;;;;;5053848;28;20231;-55
2021/09/09 04:09:30;;;;;;;0.63;0.52;;;19.00;45.80;;;;;;5052892;28;20257;-54
2021/09/09 04:12:02;;;;;;;0.70;0.50;;;19.00;45.80;;;;;;5053598;28;20238;-55
2021/09/09 04:14:33;;;;;;;1.25;0.68;;;19.00;45.90;;;;;;5053573;28;20235;-51
2021/09/09 04:17:03;;;;;;;0.52;0.50;;;19.00;45.80;;;;;;5053501;28;20667;-47
2021/09/09 04:19:34;;;;;;;1.27;0.47;;;19.00;45.80;;;;;;5052643;28;20775;-52
2021/09/09 04:22:07;;;;;;;0.50;0.47;;;19.00;45.90;;;;;;5052798;28;20667;-50
2021/09/09 04:24:37;;;;;;;0.43;0.43;;;19.00;45.90;;;;;;5053503;28;20223;-54
2021/09/09 04:27:09;;;;;;;0.47;0.40;;;19.00;45.90;;;;;;5052426;28;20345;-54
2021/09/09 04:29:40;;;;;;;0.85;0.50;;;19.00;45.90;;;;;;5053025;28;20695;-51
2021/09/09 04:32:11;;;;;;;1.40;0.50;;;19.00;45.90;;;;;;5052911;28;20238;-54
2021/09/09 04:34:43;;;;;;;0.60;0.50;;;19.00;45.90;;;;;;5052039;28;20611;-52
2021/09/09 04:37:14;;;;;;;0.75;0.57;;;19.00;45.90;;;;;;5039317;28;20191;-52
2021/09/09 04:39:44;;;;;;;0.40;0.40;;;19.00;45.90;;;;;;5064278;22;20258;-65
2021/09/09 04:42:16;;;;;;;1.60;0.60;;;19.00;45.90;;;;;;5052213;28;20282;-64
2021/09/09 04:44:47;;;;;;;2.00;0.52;;;19.00;45.70;;;;;;5053141;28;20223;-64
2021/09/09 04:47:17;;;;;;;0.50;0.40;;;19.00;45.60;;;;;;5053545;28;20238;-52
2021/09/09 04:49:48;;;;;;;0.57;0.40;;;19.00;45.50;;;;;;5051632;28;20298;-65
2021/09/09 04:52:18;;;;;;;0.60;0.45;;;19.00;45.50;;;;;;5053392;28;20215;-64
2021/09/09 04:54:48;;;;;;;0.57;0.40;;;19.00;45.50;;;;;;5052024;28;20286;-63
2021/09/09 04:57:21;;;;;;;0.70;0.50;;;19.00;45.60;;;;;;5052515;28;20286;-56
2021/09/09 04:59:51;;;;;;;1.90;0.40;;;19.00;45.50;;;;;;5052369;28;20230;-68
2021/09/09 05:02:21;;;;;;;0.75;0.40;;;19.00;45.60;;;;;;5052334;28;20672;-63
2021/09/09 05:04:52;;;;;;;1.25;0.50;;;19.00;45.50;;;;;;5052897;28;20229;-65
2021/09/09 05:07:22;;;;;;;0.55;0.40;;;19.00;45.50;;;;;;5051768;28;20910;-61
2021/09/09 05:09:53;;;;;;;0.52;0.50;;;18.90;45.50;;;;;;5050685;28;20238;-61
2021/09/09 05:12:25;;;;;;;1.30;0.50;;;19.00;45.60;;;;;;5051463;28;20198;-53
2021/09/09 05:14:56;;;;;;;0.70;0.40;;;18.90;45.60;;;;;;5052012;28;20234;-65
2021/09/09 05:17:26;;;;;;;0.70;0.50;;;18.90;45.60;;;;;;5052577;28;20667;-64
2021/09/09 05:19:57;;;;;;;0.52;0.50;;;18.90;45.70;;;;;;5051167;28;20239;-65
2021/09/09 05:22:27;;;;;;;0.98;0.63;;;18.90;45.70;;;;;;5052443;28;20246;-65
2021/09/09 05:24:57;;;;;;;0.60;0.40;;;18.90;45.80;;;;;;5051653;28;20314;-65
2021/09/09 05:27:30;;;;;;;0.80;0.50;;;18.90;45.70;;;;;;5052117;28;20272;-65
2021/09/09 05:30:00;;;;;;;0.65;0.50;;;18.90;46.30;;;;;;5051034;28;20259;-63
2021/09/09 05:32:31;;;;;;;0.70;0.47;;;18.90;45.60;;;;;;5052332;28;20242;-63
2021/09/09 05:35:20;;;;;;;1.58;0.70;;;18.90;45.60;;;;;;5052550;28;20196;-64
2021/09/09 05:37:50;;;;;;;1.40;0.40;;;18.90;45.70;;;;;;5052492;28;20282;-60
2021/09/09 05:40:21;;;;;;;0.68;0.40;;;18.90;45.60;;;;;;5052649;28;20261;-65
2021/09/09 05:42:53;;;;;;;0.40;0.40;;;18.90;45.60;;;;;;5052460;28;20278;-63
2021/09/09 05:45:23;;;;;;;0.38;0.35;;;18.80;45.60;;;;;;5052207;28;20259;-59
2021/09/09 05:47:54;;;;;;;0.45;0.30;;;18.90;45.70;;;;;;5049608;28;20715;-64
2021/09/09 05:50:24;;;;;;;0.73;0.45;;;18.80;45.70;;;;;;5051950;28;20302;-65
2021/09/09 05:52:55;;;;;;;0.47;0.40;;;18.80;45.70;;;;;;5052400;28;20694;-64
2021/09/09 05:55:25;;;;;;;0.93;0.50;;;18.80;45.70;;;;;;5050792;28;20235;-63
2021/09/09 05:57:57;;;;;;;0.93;0.50;;;18.80;45.80;;;;;;5051560;28;20234;-64
2021/09/09 06:00:28;;;;;;;0.65;0.40;;;18.80;45.80;;;;;;5051736;28;20773;-61
2021/09/09 06:03:00;;;;;;;0.95;0.47;;;18.80;45.80;;;;;;5051193;28;20616;-64
2021/09/09 06:05:33;;;;;;;0.65;0.40;;;18.80;45.80;;;;;;5051393;28;20250;-65
2021/09/09 06:08:03;;;;;;;0.65;0.32;;;18.80;45.80;;;;;;5050792;28;20678;-64
2021/09/09 06:10:34;;;;;;;2.67;0.50;;;18.80;45.90;;;;;;5051166;28;20973;-55
2021/09/09 06:13:06;;;;;;;0.38;0.38;;;18.80;46.00;;;;;;5050271;28;20636;-64
2021/09/09 06:15:36;;;;;;;0.65;0.50;;;18.80;45.90;;;;;;5051324;28;20234;-64
2021/09/09 06:18:07;;;;;;;1.13;0.50;;;18.80;46.00;;;;;;5051510;28;20675;-64
2021/09/09 06:20:37;;;;;;;1.05;0.50;;;18.70;45.90;;;;;;5051441;28;20243;-65
2021/09/09 06:23:08;;;;;;;0.75;0.40;;;18.80;46.00;;;;;;5050269;28;20196;-64
2021/09/09 06:25:41;;;;;;;0.40;0.40;;;18.70;46.00;;;;;;5050823;28;20317;-56
2021/09/09 06:28:13;;;;;;;0.57;0.40;;;18.70;46.00;;;;;;5051039;28;20242;-64
2021/09/09 06:30:43;;;;;;;1.10;0.40;;;18.70;46.00;;;;;;5050316;28;20776;-63
2021/09/09 06:33:14;;;;;;;1.05;0.50;;;18.70;46.10;;;;;;5051231;28;20721;-65
2021/09/09 06:35:46;;;;;;;0.65;0.50;;;18.70;46.20;;;;;;5049878;28;20232;-61
2021/09/09 06:38:16;;;;;;;1.20;0.63;;;18.60;46.10;;;;;;5050811;28;20192;-64
2021/09/09 06:40:47;;;;;;;3.08;0.80;;;18.70;46.20;;;;;;5050638;28;20288;-65
2021/09/09 06:43:19;;;;;;;1.00;0.73;;;18.70;46.20;;;;;;5050640;28;20231;-62
2021/09/09 06:45:49;;;;;;;4.65;0.80;;;18.60;46.30;;;;;;5049011;28;20804;-61
2021/09/09 06:48:20;;;;;;;1.02;0.50;;;18.60;46.30;;;;;;5050578;28;20200;-65
2021/09/09 06:50:50;;;;;;;1.20;0.70;;;18.60;46.40;;;;;;5049200;28;20247;-65
2021/09/09 06:53:21;;;;;;;1.17;0.73;;;18.60;46.50;;;;;;5050502;28;20249;-65
2021/09/09 06:55:51;;;;;;;1.42;0.75;;;18.60;46.50;;;;;;5051059;28;20234;-65
2021/09/09 06:58:23;;;;;;;1.23;0.60;;;18.60;46.50;;;;;;5049454;28;20191;-59
2021/09/09 07:00:54;;;;;;;1.10;0.63;;;18.60;46.40;;;;;;5050418;28;20254;-63
2021/09/09 07:03:29;;;;;;;2.03;0.70;;;18.60;46.50;;;;;;5049839;28;20730;-61
2021/09/09 07:06:00;;;;;;;1.23;0.63;;;18.60;46.50;;;;;;5050577;28;20276;-58
2021/09/09 07:08:30;;;;;;;0.75;0.52;;;18.60;46.60;;;;;;5050759;28;20261;-65
2021/09/09 07:11:01;;;;;;;1.10;0.85;;;18.50;46.60;;;;;;5050428;28;20258;-64
2021/09/09 07:13:33;;;;;;;1.20;0.68;;;18.60;46.60;;;;;;5050496;28;20226;-66
2021/09/09 07:16:05;;;;;;;1.20;0.80;;;18.50;46.60;;;;;;5050474;28;20239;-65
2021/09/09 07:18:35;;;;;;;1.63;0.68;;;18.50;46.60;;;;;;5050730;28;20227;-64
2021/09/09 07:21:06;;;;;;;0.80;0.60;;;18.50;46.70;;;;;;5050353;28;20351;-66
2021/09/09 07:23:37;;;;;;;1.08;0.65;;;18.50;46.80;;;;;;5051689;28;20538;-65
2021/09/09 07:26:07;;;;;;;1.17;0.50;;;18.50;46.70;;;;;;5052244;28;20774;-66
2021/09/09 07:28:40;;;;;;;0.77;0.60;;;18.50;46.80;;;;;;5055301;28;20235;-64
2021/09/09 07:31:10;;;;;;;2.15;0.73;;;18.50;46.90;;;;;;5054772;28;20754;-63
2021/09/09 07:33:40;;;;;;;2.50;0.98;;;18.50;47.00;;;;;;5054172;28;20191;-58
2021/09/09 07:36:11;;;;;;;0.90;0.77;;;18.50;47.10;;;;;;5054131;28;20195;-65
2021/09/09 07:38:43;;;;;;;1.65;0.80;;;18.50;47.10;;;;;;5054178;28;20195;-64
2021/09/09 07:41:14;;;;;;;0.90;0.80;;;18.50;47.10;;;;;;5053436;28;20605;-66
2021/09/09 07:43:47;;;;;;;2.33;0.70;;;18.40;47.10;;;;;;5054335;28;20644;-62
2021/09/09 07:46:17;;;;;;;1.35;0.82;;;18.40;47.10;;;;;;5054395;28;20272;-54
2021/09/09 07:48:47;;;;;;;1.33;0.63;;;18.40;47.20;;;;;;5054508;28;20606;-66
2021/09/09 07:51:18;;;;;;;2.05;0.80;;;18.40;47.20;;;;;;5054430;28;20246;-60
2021/09/09 07:53:49;;;;;;;1.13;0.80;;;18.40;47.20;;;;;;5054738;28;20260;-64
2021/09/09 07:56:19;;;;;;;0.80;0.55;;;18.40;47.30;;;;;;5054243;28;20234;-66
2021/09/09 07:58:52;;;;;;;0.80;0.70;;;18.30;47.20;;;;;;5054182;28;20235;-62
2021/09/09 08:01:23;;;;;;;1.33;0.90;;;18.40;47.30;;;;;;5054284;28;20227;-65
2021/09/09 08:03:54;;;;;;;1.17;0.75;;;18.30;47.30;;;;;;5054529;28;20647;-66
2021/09/09 08:06:25;;;;;;;1.42;1.02;;;18.30;47.30;;;;;;5054446;28;20258;-66
2021/09/09 08:08:55;;;;;;;1.73;0.75;;;18.30;47.40;;;;;;5054358;28;20604;-63
2021/09/09 08:11:26;;;;;;;1.88;0.75;;;18.30;47.40;;;;;;5053647;28;20293;-66
2021/09/09 08:13:58;;;;;;;1.52;1.08;;;18.30;47.40;;;;;;5054238;28;20286;-67
2021/09/09 08:16:28;;;;;;;1.25;0.80;;;18.30;47.50;;;;;;5053736;28;20675;-67
2021/09/09 08:18:59;;;;;;;1.10;0.70;;;18.30;48.10;;;;;;5053435;28;20545;-66
2021/09/09 08:21:29;;;;;;;1.52;1.10;;;18.30;47.50;;;;;;5053815;28;20311;-65
2021/09/09 08:24:00;;;;;;;1.20;0.82;;;18.30;47.50;;;;;;5053996;28;20286;-62
2021/09/09 08:26:30;;;;;;;1.08;0.63;;;18.30;47.50;;;;;;5053279;28;20723;-63
2021/09/09 08:29:02;;;;;;;1.20;0.80;;;18.20;47.40;;;;;;5053537;28;20655;-66
2021/09/09 08:31:33;;;;;;;2.42;0.85;;;18.20;47.50;;;;;;5053344;28;20332;-65
2021/09/09 08:34:03;;;;;;;1.33;0.70;;;18.20;47.50;;;;;;5053131;28;20231;-62
2021/09/09 08:36:34;;;;;;;1.00;0.73;;;18.20;47.50;;;;;;5053586;28;20227;-59
2021/09/09 08:39:04;;;;;;;1.02;0.80;;;18.20;47.60;;;;;;5067221;22;20241;-52
2021/09/09 08:41:35;;;;;;;1.25;0.73;;;18.20;47.60;;;;;;5052918;28;20306;-54
2021/09/09 08:44:07;;;;;;;1.17;0.70;;;18.20;47.60;;;;;;5053453;28;20411;-52
2021/09/09 08:46:37;;;;;;;2.40;0.68;;;18.20;47.60;;;;;;5052972;28;20314;-55
2021/09/09 08:49:08;;;;;;;1.10;0.65;;;18.20;47.70;;;;;;5053142;28;20199;-55
2021/09/09 08:51:38;;;;;;;1.83;0.77;;;18.10;47.70;;;;;;5052893;28;20274;-55
2021/09/09 08:54:09;;;;;;;1.52;0.90;;;18.10;47.70;;;;;;5053241;28;20231;-53
2021/09/09 08:56:39;;;;;;;1.10;0.70;;;18.10;47.70;;;;;;5053207;28;20204;-54
2021/09/09 08:59:11;;;;;;;1.52;0.85;;;18.10;47.80;;;;;;5052347;28;20238;-52
2021/09/09 09:02:01;;;;;;;1.73;0.80;;;18.10;47.70;;;;;;5053608;28;20245;-48
2021/09/09 09:04:32;;;;;;;1.50;0.80;;;18.10;47.80;;;;;;5053555;28;20253;-55
2021/09/09 09:07:02;;;;;;;2.20;1.00;;;18.10;47.70;;;;;;5053112;28;20282;-57
2021/09/09 09:09:34;;;;;;;1.77;1.00;;;18.10;47.80;;;;;;5052716;28;20216;-53
2021/09/09 09:12:06;;;;;;;0.63;0.63;;;18.10;47.80;;;;;;5053643;28;20261;-56
2021/09/09 09:14:38;;;;;;;1.20;0.75;;;18.00;47.80;;;;;;5052843;28;20320;-55
2021/09/09 09:17:09;;;;;;;0.88;0.70;;;18.00;47.80;;;;;;5052816;28;20636;-56
2021/09/09 09:19:41;;;;;;;1.88;0.88;;;18.00;47.80;;;;;;5053013;28;20211;-55
2021/09/09 09:22:13;;;;;;;1.30;0.70;;;18.00;47.80;;;;;;5053118;28;20565;-58
2021/09/09 09:24:46;;;;;;;0.77;0.65;;;18.00;47.90;;;;;;5052582;28;20558;-54
2021/09/09 09:27:17;;;;;;;1.60;0.80;;;18.00;47.90;;;;;;5052517;28;20195;-49
2021/09/09 09:30:01;;;;;;;1.02;0.70;;;18.00;47.90;;;;;;5052104;28;20243;-52
2021/09/09 09:32:31;;;;;;;1.52;0.75;;;18.00;48.00;;;;;;5052117;28;20199;-53
2021/09/09 09:35:11;;;;;;;1.98;0.70;;;18.00;48.00;;;;;;5052353;28;20234;-56
2021/09/09 09:37:54;;;;;;;1.20;0.80;;;18.00;48.20;;;;;;5052213;28;20597;-49
2021/09/09 09:40:29;;;;;;;1.30;0.70;;;18.00;48.20;;;;;;5063337;22;20254;-64
2021/09/09 09:42:59;;;;;;;0.95;0.80;;;18.00;48.20;;;;;;5052359;28;20632;-66
2021/09/09 09:45:32;;;;;;;0.85;0.82;;;18.00;48.20;;;;;;5051460;28;20265;-65
2021/09/09 09:48:02;;;;;;;1.95;0.80;;;18.00;48.20;;;;;;5052311;28;20235;-60
2021/09/09 09:50:41;;;;;;;1.58;0.90;;;18.00;48.20;;;;;;5052246;28;20255;-49
2021/09/09 09:53:21;;;;;;;1.67;0.60;;;18.00;48.40;;;;;;5051691;28;20191;-61
2021/09/09 09:55:52;;;;;;;1.80;0.80;;;18.00;48.70;;;;;;5051675;28;20195;-60
2021/09/09 09:58:22;;;;;;;1.83;1.00;;;18.00;49.10;;;;;;5051603;28;20203;-63
2021/09/09 10:00:55;;;;;;;1.95;1.20;;;18.00;49.70;;;;;;5051304;28;20226;-58
2021/09/09 10:03:25;;;;;;;2.15;1.10;;;18.00;50.10;;;;;;5052280;28;20196;-65
2021/09/09 10:05:56;;;;;;;2.95;0.90;;;18.00;50.10;;;;;;5052085;28;20258;-64
2021/09/09 10:08:26;;;;;;;1.52;0.80;;;18.00;50.00;;;;;;5052170;28;20227;-50
2021/09/09 10:10:57;;;;;;;2.03;0.98;;;18.00;49.90;;;;;;5051640;28;20251;-58
2021/09/09 10:13:27;;;;;;;1.35;0.90;;;18.00;49.80;;;;;;5051762;28;20257;-65
2021/09/09 10:15:59;;;;;;;2.75;1.00;;;18.00;49.80;;;;;;5051966;28;20614;-59
2021/09/09 10:18:30;;;;;;;2.72;1.10;;;18.00;49.70;;;;;;5052189;28;20250;-67
2021/09/09 10:21:02;;;;;;;4.03;1.10;;;18.00;49.60;;;;;;5050271;28;20265;-59
2021/09/09 10:23:33;;;;;;;1.83;0.90;;;18.00;49.50;;;;;;5051291;28;20198;-58
2021/09/09 10:26:03;;;;;;;3.17;1.10;;;18.00;49.50;;;;;;5051193;28;20314;-48
2021/09/09 10:28:48;;;;;;;1.73;1.10;;;18.00;49.40;;;;;;5050944;28;20207;-57
2021/09/09 10:31:21;;;;;;;2.35;1.13;;;18.00;49.40;;;;;;5044219;28;20632;-60
2021/09/09 10:33:55;;;;;;;1.73;1.00;;;18.00;49.30;;;;;;5051399;28;20280;-65
2021/09/09 10:36:45;;;;;;;1.95;1.00;;;18.00;49.30;;;;;;5050055;28;20411;-56
2021/09/09 10:39:16;;;;;;;5.05;1.15;;;18.00;49.20;;;;;;5051595;28;20203;-59
2021/09/09 10:41:47;;;;;;;2.95;1.08;;;18.00;49.20;;;;;;5050747;28;20230;-56
2021/09/09 10:44:17;;;;;;;1.85;1.05;;;17.90;49.10;;;;;;5051071;28;20210;-64
2021/09/09 10:46:50;;;;;;;3.88;1.20;;;17.90;49.20;;;;;;5050647;28;20227;-65
2021/09/09 10:49:21;;;;;;;3.13;1.00;;;17.90;49.10;;;;;;5049905;28;20621;-51
2021/09/09 10:52:11;;;;;;;2.83;1.17;;;17.90;49.10;;;;;;5050664;28;20227;-52
2021/09/09 10:55:04;;;;;;;3.78;1.40;;;17.90;49.10;;;;;;5050594;28;20273;-60
2021/09/09 10:57:34;;;;;;;4.57;1.40;;;17.90;49.70;;;;;;5049561;28;20207;-56
2021/09/09 11:00:05;;;;;;;2.17;1.30;;;17.90;49.00;;;;;;5050064;28;20270;-63
2021/09/09 11:02:37;;;;;;;2.13;1.30;;;17.90;49.00;;;;;;5051068;28;20222;-56
2021/09/09 11:05:08;;;;;;;2.90;1.48;;;17.80;48.90;;;;;;5048950;28;20714;-53
2021/09/09 11:07:41;;;;;;;3.53;1.67;;;17.90;49.00;;;;;;5050629;28;20663;-55
2021/09/09 11:10:12;;;;;;;3.25;1.52;;;17.80;48.90;;;;;;5049567;28;20314;-63
2021/09/09 11:12:43;;;;;;;3.45;1.50;;;17.80;48.80;;;;;;5050331;28;20258;-58
2021/09/09 11:15:14;;;;;;;2.63;1.30;;;17.80;48.90;;;;;;5050056;28;20286;-60
2021/09/09 11:17:47;;;;;;;2.75;1.55;;;17.80;48.80;;;;;;5047276;28;20288;-55
2021/09/09 11:20:17;;;;;;;6.03;1.70;;;17.80;48.80;;;;;;5029388;28;20247;-48
2021/09/09 11:22:48;;;;;;;2.97;1.50;;;17.80;48.80;;;;;;5045466;28;20230;-54
2021/09/09 11:25:21;;;;;;;3.95;1.65;;;17.80;48.70;;;;;;5049988;28;20605;-65
2021/09/09 11:27:51;;;;;;;3.13;1.27;;;17.80;48.70;;;;;;5050340;28;20227;-57
2021/09/09 11:30:22;;;;;;;5.63;1.90;;;17.80;48.70;;;;;;5050756;28;20239;-62
2021/09/09 11:33:07;;;;;;;3.38;1.80;;;17.80;48.70;;;;;;5049650;28;20230;-64
2021/09/09 11:35:37;;;;;;;4.22;1.83;;;17.70;48.70;;;;;;5050553;28;20224;-64
2021/09/09 11:38:07;;;;;;;3.78;1.73;;;17.70;48.70;;;;;;5049302;28;20671;-65
2021/09/09 11:40:38;;;;;;;3.78;1.50;;;17.70;48.70;;;;;;5050850;28;20671;-64
2021/09/09 11:43:08;;;;;;;3.92;1.70;;;17.70;48.70;;;;;;5050727;28;20615;-64
2021/09/09 11:45:39;;;;;;;3.50;1.63;;;17.70;48.60;;;;;;5049379;28;20247;-63
2021/09/09 11:48:11;;;;;;;5.35;1.80;;;17.70;48.60;;;;;;5050362;28;20223;-62
2021/09/09 11:50:51;;;;;;;3.63;1.58;;;17.70;48.60;;;;;;5049579;28;20280;-62
2021/09/09 11:53:28;;;;;;;3.33;1.90;;;17.70;48.50;;;;;;5049293;28;20795;-63
2021/09/09 11:55:58;;;;;;;3.55;1.70;;;17.70;48.50;;;;;;5049374;28;20307;-65
2021/09/09 11:58:36;;;;;;;4.35;1.90;;;17.70;48.50;;;;;;5049720;28;20250;-52
2021/09/09 12:01:06;;;;;;;4.28;1.77;;;17.70;48.50;;;;;;5049378;28;20472;-60
2021/09/09 12:03:38;;;;;;;4.55;2.20;;;17.70;48.50;;;;;;5050828;28;20242;-58
2021/09/09 12:06:09;;;;;;;4.28;2.08;;;17.70;48.40;;;;;;5050097;28;20273;-63
2021/09/09 12:08:40;;;;;;;4.00;1.75;;;17.70;48.40;;;;;;5050514;28;20235;-63
2021/09/09 12:11:11;;;;;;;2.83;1.75;;;17.70;48.40;;;;;;5054208;28;20216;-59
2021/09/09 12:13:43;;;;;;;5.03;2.15;;;17.60;48.30;;;;;;5052365;28;20215;-61
2021/09/09 12:16:19;;;;;;;3.45;1.65;;;17.60;48.30;;;;;;5054318;28;20275;-63
2021/09/09 12:18:52;;;;;;;3.60;1.88;;;17.60;48.30;;;;;;5053725;28;20226;-59
2021/09/09 12:21:24;;;;;;;3.60;1.67;;;17.60;48.30;;;;;;5053447;28;20211;-51
2021/09/09 12:24:06;;;;;;;3.75;1.80;;;17.60;48.30;;;;;;5053666;28;20231;-62
2021/09/09 12:26:36;;;;;;;3.45;1.92;;;17.60;48.30;;;;;;5053319;28;20215;-63
2021/09/09 12:29:17;;;;;;;3.47;1.65;;;17.60;48.20;;;;;;5053842;28;20572;-62
2021/09/09 12:31:47;;;;;;;5.82;2.10;;;17.60;48.20;;;;;;5053839;28;20191;-58
2021/09/09 12:34:21;;;;;;;6.50;1.88;;;17.60;48.20;;;;;;5053761;28;20227;-62
2021/09/09 12:36:51;;;;;;;3.72;1.67;;;17.60;48.20;;;;;;5053526;28;20238;-63
2021/09/09 12:39:22;;;;;;;4.72;1.58;;;17.60;48.20;;;;;;5053956;28;20660;-60
2021/09/09 12:41:52;;;;;;;4.00;1.70;;;17.60;48.10;;;;;;5053433;28;20212;-62
2021/09/09 12:44:23;;;;;;;6.45;1.77;;;17.60;48.10;;;;;;5053323;28;20801;-61
2021/09/09 12:46:54;;;;;;;4.35;1.55;;;17.60;47.60;;;;;;5053453;28;20229;-62
2021/09/09 12:49:29;;;;;;;3.83;2.05;;;17.60;48.10;;;;;;5053776;28;20705;-61
2021/09/09 12:52:12;;;;;;;4.70;1.80;;;17.50;48.00;;;;;;5053778;28;20274;-57
2021/09/09 12:54:45;;;;;;;4.72;1.77;;;17.60;48.10;;;;;;5053659;28;20235;-58
2021/09/09 12:57:29;;;;;;;3.80;2.10;;;17.60;48.10;;;;;;5053398;28;20292;-51
2021/09/09 13:00:00;;;;;;;3.35;1.67;;;17.50;48.10;;;;;;5052899;28;20683;-58
2021/09/09 13:02:30;;;;;;;3.35;1.70;;;17.50;48.10;;;;;;5053194;28;20497;-61
2021/09/09 13:05:02;;;;;;;3.53;1.70;;;17.50;48.10;;;;;;5053044;28;20614;-51
2021/09/09 13:07:33;;;;;;;4.07;1.80;;;17.50;48.20;;;;;;5053202;28;20254;-61
2021/09/09 13:10:04;;;;;;;3.08;1.80;;;17.50;48.20;;;;;;5053268;28;20203;-62